Time;durP1;ratioP1;P1;durP2;ratioP2;P2;SDS_P1;SDS_P2;PMS_P1;PMS_P2;Temp;Humidity;BMP_temperature;BMP_pressure;BME280_temperature;BME280_humidity;BME280_pressure;Samples;Min_cycle;Max_cycle;Signal;HPM_P1;HPM_P2
2022/12/05 00:01:30;;;;;;;;;;;6.10;99.90;;;;;;5093183;28;19908;-78
2022/12/05 00:03:57;;;;;;;;;;;6.10;99.90;;;;;;5092103;28;19912;-77
2022/12/05 00:06:23;;;;;;;;;;;6.10;99.90;;;;;;5094101;28;19915;-78
2022/12/05 00:08:49;;;;;;;;;;;6.10;99.90;;;;;;5092249;28;20027;-77
2022/12/05 00:11:16;;;;;;;;;;;6.10;99.90;;;;;;5093815;28;19935;-77
2022/12/05 00:13:42;;;;;;;;;;;6.10;99.90;;;;;;5093482;28;19912;-78
2022/12/05 00:16:08;;;;;;;;;;;6.20;99.90;;;;;;5093562;28;19915;-78
2022/12/05 00:18:34;;;;;;;;;;;6.10;99.90;;;;;;5092558;28;20054;-78
2022/12/05 00:20:59;;;;;;;;;;;6.10;99.90;;;;;;5094811;28;19932;-77
2022/12/05 00:23:25;;;;;;;;;;;6.20;99.90;;;;;;5095729;28;19908;-78
2022/12/05 00:25:50;;;;;;;;;;;6.20;99.90;;;;;;5093751;28;20372;-77
2022/12/05 00:28:16;;;;;;;;;;;6.00;99.90;;;;;;5092857;28;19908;-77
2022/12/05 00:30:41;;;;;;;;;;;5.80;99.90;;;;;;5092073;28;19908;-77
2022/12/05 00:33:07;;;;;;;;;;;5.90;99.90;;;;;;5091804;28;20020;-78
2022/12/05 00:35:33;;;;;;;;;;;5.90;99.90;;;;;;5092584;28;20380;-79
2022/12/05 00:37:58;;;;;;;;;;;6.00;99.90;;;;;;5094417;28;19920;-78
2022/12/05 00:40:24;;;;;;;;;;;6.00;99.90;;;;;;5095423;28;20384;-77
2022/12/05 00:42:49;;;;;;;;;;;6.10;99.90;;;;;;5096252;28;19912;-78
2022/12/05 00:45:15;;;;;;;;;;;5.90;99.90;;;;;;5093258;28;19919;-78
2022/12/05 00:47:40;;;;;;;;;;;5.90;99.90;;;;;;5089751;28;19923;-78
2022/12/05 00:50:06;;;;;;;;;;;5.80;99.90;;;;;;5088688;28;19912;-78
2022/12/05 00:52:32;;;;;;;;;;;5.80;99.90;;;;;;5090065;28;19951;-77
2022/12/05 00:54:57;;;;;;;;;;;5.80;99.90;;;;;;5090522;28;20034;-78
2022/12/05 00:57:23;;;;;;;;;;;5.70;99.90;;;;;;5089948;28;20023;-78
2022/12/05 00:59:48;;;;;;;;;;;5.70;99.90;;;;;;5090142;28;20697;-78
2022/12/05 01:02:14;;;;;;;;;;;5.70;99.90;;;;;;5088706;28;19915;-78
2022/12/05 01:04:39;;;;;;;;;;;5.70;99.90;;;;;;5088531;28;19967;-78
2022/12/05 01:07:05;;;;;;;;;;;5.70;99.90;;;;;;5090754;28;19991;-78
2022/12/05 01:09:30;;;;;;;;;;;5.70;99.90;;;;;;5089017;28;19920;-78
2022/12/05 01:11:56;;;;;;;;;;;5.60;99.90;;;;;;5090532;28;19916;-77
2022/12/05 01:14:22;;;;;;;;;;;5.60;99.90;;;;;;5090466;28;19913;-78
2022/12/05 01:16:48;;;;;;;;;;;5.70;99.90;;;;;;5089928;28;19915;-78
2022/12/05 01:19:19;;;;;;;;;;;5.60;99.90;;;;;;5089380;28;20265;-78
2022/12/05 01:21:46;;;;;;;;;;;5.60;99.90;;;;;;5088891;28;19908;-79
2022/12/05 01:24:12;;;;;;;;;;;5.60;99.90;;;;;;5090910;28;19908;-79
2022/12/05 01:26:38;;;;;;;;;;;5.50;99.90;;;;;;5090560;28;19916;-78
2022/12/05 01:29:04;;;;;;;;;;;5.50;99.90;;;;;;5089517;28;20002;-79
2022/12/05 01:31:31;;;;;;;;;;;5.60;99.90;;;;;;5088994;28;20069;-78
2022/12/05 01:33:57;;;;;;;;;;;5.50;99.90;;;;;;5089248;28;19912;-78
2022/12/05 01:36:23;;;;;;;;;;;5.60;99.90;;;;;;5089333;28;19937;-78
2022/12/05 01:38:49;;;;;;;;;;;5.60;99.90;;;;;;5090527;28;19916;-77
2022/12/05 01:41:20;;;;;;;;;;;5.50;99.90;;;;;;5089358;28;19915;-78
2022/12/05 01:43:56;;;;;;;;;;;5.50;99.90;;;;;;5090126;28;19908;-78
2022/12/05 01:46:22;;;;;;;;;;;5.60;99.90;;;;;;5090469;28;19908;-78
2022/12/05 01:48:48;;;;;;;;;;;5.60;99.90;;;;;;5091254;28;19912;-78
2022/12/05 01:51:14;;;;;;;;;;;5.60;99.90;;;;;;5091296;28;20127;-78
2022/12/05 01:53:39;;;;;;;;;;;5.60;99.90;;;;;;5090464;28;20009;-77
2022/12/05 01:56:05;;;;;;;;;;;5.50;99.90;;;;;;5090730;28;19957;-77
2022/12/05 01:58:34;;;;;;;;;;;5.70;99.90;;;;;;5089277;28;19944;-78
2022/12/05 02:01:00;;;;;;;;;;;5.70;99.90;;;;;;5090872;28;19909;-78
2022/12/05 02:03:26;;;;;;;;;;;5.60;99.90;;;;;;5092678;28;20060;-78
2022/12/05 02:05:53;;;;;;;;;;;5.60;99.90;;;;;;5089999;28;19919;-77
2022/12/05 02:08:18;;;;;;;;;;;5.50;99.90;;;;;;5090094;28;19908;-77
2022/12/05 02:10:48;;;;;;;;;;;5.50;99.90;;;;;;5090739;28;19908;-78
2022/12/05 02:13:15;;;;;;;;;;;5.50;99.90;;;;;;5090434;28;20289;-77
2022/12/05 02:15:51;;;;;;;;;;;5.40;99.90;;;;;;5090078;28;19995;-77
2022/12/05 02:18:25;;;;;;;;;;;5.40;99.90;;;;;;5090673;28;19920;-78
2022/12/05 02:20:51;;;;;;;;;;;5.50;99.90;;;;;;5089370;28;19916;-78
2022/12/05 02:23:28;;;;;;;;;;;5.50;99.90;;;;;;5089227;28;19915;-78
2022/12/05 02:26:13;;;;;;;;;;;5.40;99.90;;;;;;5091661;28;20015;-78
2022/12/05 02:28:41;;;;;;;;;;;5.50;99.90;;;;;;5091728;28;19908;-78
2022/12/05 02:31:15;;;;;;;;;;;5.50;99.90;;;;;;5090125;28;20388;-78
2022/12/05 02:33:49;;;;;;;;;;;5.40;99.90;;;;;;5091676;28;19953;-77
2022/12/05 02:36:17;;;;;;;;;;;5.40;99.90;;;;;;5090235;28;20076;-77
2022/12/05 02:39:03;;;;;;;;;;;5.40;99.90;;;;;;5091018;28;19970;-78
2022/12/05 02:41:44;;;;;;;;;;;5.40;99.90;;;;;;5093957;28;19912;-78
2022/12/05 02:44:27;;;;;;;;;;;5.30;99.90;;;;;;5096564;28;19912;-79
2022/12/05 02:46:53;;;;;;;;;;;5.30;99.90;;;;;;5094978;28;19912;-77
2022/12/05 02:49:20;;;;;;;;;;;5.40;99.90;;;;;;5095548;28;19977;-78
2022/12/05 02:51:49;;;;;;;;;;;5.30;99.90;;;;;;5094715;28;20061;-78
2022/12/05 02:54:19;;;;;;;;;;;5.40;99.90;;;;;;5094402;28;19961;-77
2022/12/05 02:56:46;;;;;;;;;;;5.40;99.90;;;;;;5093737;28;19994;-77
2022/12/05 02:59:12;;;;;;;;;;;5.40;99.90;;;;;;5095576;28;19961;-77
2022/12/05 03:01:38;;;;;;;;;;;5.30;99.90;;;;;;5095192;28;19912;-77
2022/12/05 03:04:04;;;;;;;;;;;5.30;99.90;;;;;;5094057;28;20010;-77
2022/12/05 03:06:39;;;;;;;;;;;5.40;99.90;;;;;;5097477;28;19914;-78
2022/12/05 03:09:10;;;;;;;;;;;5.40;99.90;;;;;;5097182;28;19908;-78
2022/12/05 03:11:41;;;;;;;;;;;5.50;99.90;;;;;;5100336;28;19908;-78
2022/12/05 03:14:11;;;;;;;;;;;5.40;99.90;;;;;;5094398;28;19908;-78
2022/12/05 03:16:42;;;;;;;;;;;5.30;99.90;;;;;;5091910;28;20490;-78
2022/12/05 03:19:14;;;;;;;;;;;5.30;99.90;;;;;;5091364;28;19926;-78
2022/12/05 03:21:44;;;;;;;;;;;5.30;99.90;;;;;;5092887;28;19915;-78
2022/12/05 03:24:12;;;;;;;;;;;5.40;99.90;;;;;;5091672;28;19908;-78
2022/12/05 03:26:45;;;;;;;;;;;5.40;99.90;;;;;;5091675;28;19908;-78
2022/12/05 03:29:10;;;;;;;;;;;5.30;99.90;;;;;;5091583;28;19912;-78
2022/12/05 03:31:44;;;;;;;;;;;5.50;99.90;;;;;;5091413;28;19915;-78
2022/12/05 03:34:13;;;;;;;;;;;5.40;99.90;;;;;;5091771;28;20433;-78
2022/12/05 03:36:40;;;;;;;;;;;5.40;99.90;;;;;;5091894;28;20407;-78
2022/12/05 03:39:20;;;;;;;;;;;5.40;99.90;;;;;;5093209;28;20006;-78
2022/12/05 03:41:56;;;;;;;;;;;5.30;99.90;;;;;;5088897;28;19908;-77
2022/12/05 03:44:41;;;;;;;;;;;5.30;99.90;;;;;;5092958;28;20463;-77
2022/12/05 03:47:13;;;;;;;;;;;5.20;99.90;;;;;;5091137;28;20413;-77
2022/12/05 03:49:42;;;;;;;;;;;5.20;99.90;;;;;;5090349;28;19912;-78
2022/12/05 03:52:31;;;;;;;;;;;5.20;99.90;;;;;;5091339;28;19908;-78
2022/12/05 03:55:00;;;;;;;;;;;5.20;99.90;;;;;;5091046;28;19965;-77
2022/12/05 03:57:28;;;;;;;;;;;5.10;99.90;;;;;;5090734;28;19920;-78
2022/12/05 03:59:56;;;;;;;;;;;5.20;99.90;;;;;;5091019;28;20501;-77
2022/12/05 04:02:32;;;;;;;;;;;5.20;99.90;;;;;;5091966;28;19919;-78
2022/12/05 04:05:07;;;;;;;;;;;5.20;99.90;;;;;;5090743;28;20433;-78
2022/12/05 04:07:34;;;;;;;;;;;5.10;99.90;;;;;;5091666;28;19915;-77
2022/12/05 04:10:03;;;;;;;;;;;5.00;99.90;;;;;;5090748;28;19912;-77
2022/12/05 04:12:29;;;;;;;;;;;5.00;99.90;;;;;;5091101;28;19912;-77
2022/12/05 04:15:00;;;;;;;;;;;5.00;99.90;;;;;;5091715;28;19947;-77
2022/12/05 04:17:29;;;;;;;;;;;5.00;99.90;;;;;;5091889;28;19971;-77
2022/12/05 04:22:39;;;;;;;;;;;4.90;99.90;;;;;;5092348;28;20053;-77
2022/12/05 04:28:16;;;;;;;;;;;4.90;99.90;;;;;;5092198;28;19941;-78
2022/12/05 04:30:41;;;;;;;;;;;4.90;99.90;;;;;;5092021;28;19916;-77
2022/12/05 04:33:18;;;;;;;;;;;4.90;99.90;;;;;;5090916;28;20270;-81
2022/12/05 04:35:54;;;;;;;;;;;5.00;99.90;;;;;;5092690;28;19909;-77
2022/12/05 04:38:26;;;;;;;;;;;5.00;99.90;;;;;;5091193;28;19923;-78
2022/12/05 04:40:57;;;;;;;;;;;4.90;99.90;;;;;;5090603;28;19916;-77
2022/12/05 04:43:24;;;;;;;;;;;5.10;99.90;;;;;;5093087;28;20078;-78
2022/12/05 04:45:51;;;;;;;;;;;5.00;99.90;;;;;;5092557;28;19916;-78
2022/12/05 04:48:17;;;;;;;;;;;4.90;99.90;;;;;;5093369;28;19916;-78
2022/12/05 04:50:45;;;;;;;;;;;4.90;99.90;;;;;;5093635;28;20001;-78
2022/12/05 04:53:11;;;;;;;;;;;4.90;99.90;;;;;;5093590;28;19999;-78
2022/12/05 04:55:39;;;;;;;;;;;5.00;99.90;;;;;;5092073;28;19912;-78
2022/12/05 04:58:13;;;;;;;;;;;4.90;99.90;;;;;;5092310;28;19935;-78
2022/12/05 05:00:45;;;;;;;;;;;4.80;99.90;;;;;;5091835;28;20211;-77
2022/12/05 05:03:13;;;;;;;;;;;4.80;99.90;;;;;;5091862;28;19912;-77
2022/12/05 05:05:40;;;;;;;;;;;4.70;99.90;;;;;;5091673;28;20165;-77
2022/12/05 05:08:14;;;;;;;;;;;4.70;99.90;;;;;;5093230;28;19915;-77
2022/12/05 05:10:44;;;;;;;;;;;4.80;99.90;;;;;;5092893;28;19912;-77
2022/12/05 05:13:09;;;;;;;;;;;4.80;99.90;;;;;;5091571;28;19923;-77
2022/12/05 05:15:35;;;;;;;;;;;4.80;99.90;;;;;;5090661;28;19908;-77
2022/12/05 05:18:00;;;;;;;;;;;4.80;99.90;;;;;;5093239;28;20010;-76
2022/12/05 05:20:26;;;;;;;;;;;4.80;99.90;;;;;;5090908;28;19908;-77
2022/12/05 05:22:52;;;;;;;;;;;4.90;99.90;;;;;;5092936;28;19912;-76
2022/12/05 05:25:18;;;;;;;;;;;4.90;99.90;;;;;;5093559;28;19931;-77
2022/12/05 05:27:48;;;;;;;;;;;4.90;99.90;;;;;;5093807;28;20376;-76
2022/12/05 05:30:14;;;;;;;;;;;4.80;99.90;;;;;;5091567;28;19955;-76
2022/12/05 05:32:39;;;;;;;;;;;4.90;99.90;;;;;;5092971;28;19931;-77
2022/12/05 05:35:05;;;;;;;;;;;4.90;99.90;;;;;;5093234;28;19995;-77
2022/12/05 05:37:30;;;;;;;;;;;4.90;99.90;;;;;;5094162;28;19920;-77
2022/12/05 05:39:56;;;;;;;;;;;4.90;99.90;;;;;;5092960;28;19912;-78
2022/12/05 05:42:21;;;;;;;;;;;4.90;99.90;;;;;;5089940;28;19924;-77
2022/12/05 05:44:47;;;;;;;;;;;4.90;99.90;;;;;;5087734;28;19958;-77
2022/12/05 05:47:12;;;;;;;;;;;4.90;99.90;;;;;;5088569;28;19913;-77
2022/12/05 05:49:38;;;;;;;;;;;4.90;99.90;;;;;;5088032;28;20280;-77
2022/12/05 05:52:03;;;;;;;;;;;4.90;99.90;;;;;;5090050;28;19908;-77
2022/12/05 05:54:29;;;;;;;;;;;4.90;99.90;;;;;;5088996;28;19908;-75
2022/12/05 05:56:54;;;;;;;;;;;4.90;99.90;;;;;;5087080;28;19947;-77
2022/12/05 05:59:20;;;;;;;;;;;4.80;99.90;;;;;;5088667;28;20292;-77
2022/12/05 06:01:46;;;;;;;;;;;4.80;99.90;;;;;;5089417;28;19908;-77
2022/12/05 06:04:11;;;;;;;;;;;4.90;99.90;;;;;;5088862;28;19919;-77
2022/12/05 06:06:37;;;;;;;;;;;4.90;99.90;;;;;;5090017;28;20727;-77
2022/12/05 06:09:04;;;;;;;;;;;4.90;99.90;;;;;;5087941;28;19908;-77
2022/12/05 06:11:30;;;;;;;;;;;4.90;99.90;;;;;;5090064;28;20440;-76
2022/12/05 06:13:56;;;;;;;;;;;5.00;99.90;;;;;;5088554;28;19919;-77
2022/12/05 06:16:22;;;;;;;;;;;5.00;99.90;;;;;;5094227;28;20297;-77
2022/12/05 06:18:51;;;;;;;;;;;4.90;99.90;;;;;;5092528;28;19922;-77
2022/12/05 06:21:17;;;;;;;;;;;5.00;99.90;;;;;;5092748;28;20489;-77
2022/12/05 06:23:42;;;;;;;;;;;4.90;99.90;;;;;;5092455;28;19912;-77
2022/12/05 06:26:12;;;;;;;;;;;5.00;99.90;;;;;;5092531;28;20011;-77
2022/12/05 06:28:38;;;;;;;;;;;5.00;99.90;;;;;;5093122;28;20004;-76
2022/12/05 06:31:08;;;;;;;;;;;5.00;99.90;;;;;;5092385;28;20353;-77
2022/12/05 06:33:33;;;;;;;;;;;4.90;99.90;;;;;;5092025;28;20352;-76
2022/12/05 06:36:07;;;;;;;;;;;5.00;99.90;;;;;;5093651;28;19958;-77
2022/12/05 06:38:32;;;;;;;;;;;5.00;99.90;;;;;;5091734;28;19920;-76
2022/12/05 06:40:58;;;;;;;;;;;5.00;99.90;;;;;;5093593;28;19915;-76
2022/12/05 06:43:23;;;;;;;;;;;5.00;99.90;;;;;;5093696;28;19915;-77
2022/12/05 06:45:49;;;;;;;;;;;5.00;99.90;;;;;;5092186;28;19908;-76
2022/12/05 06:48:15;;;;;;;;;;;5.00;99.90;;;;;;5093656;28;20307;-77
2022/12/05 06:50:46;;;;;;;;;;;5.10;99.90;;;;;;5093541;28;19908;-75
2022/12/05 06:53:12;;;;;;;;;;;5.00;99.90;;;;;;5091812;28;20669;-76
2022/12/05 06:55:37;;;;;;;;;;;5.00;99.90;;;;;;5094096;28;19920;-76
2022/12/05 06:58:03;;;;;;;;;;;5.00;99.90;;;;;;5092166;28;19924;-76
2022/12/05 07:03:12;;;;;;;;;;;5.00;99.90;;;;;;5093465;28;20072;-76
2022/12/05 07:05:38;;;;;;;;;;;5.20;99.90;;;;;;5092377;28;20019;-77
2022/12/05 07:08:03;;;;;;;;;;;5.20;99.90;;;;;;5092944;28;19938;-77
2022/12/05 07:10:29;;;;;;;;;;;5.20;99.90;;;;;;5093065;28;20292;-77
2022/12/05 07:12:55;;;;;;;;;;;5.20;99.90;;;;;;5091010;28;19915;-76
2022/12/05 07:15:21;;;;;;;;;;;5.10;99.90;;;;;;5091218;28;19908;-77
2022/12/05 07:17:46;;;;;;;;;;;5.10;99.90;;;;;;5092989;28;19942;-77
2022/12/05 07:20:16;;;;;;;;;;;5.20;99.90;;;;;;5093077;28;19955;-77
2022/12/05 07:22:42;;;;;;;;;;;5.10;99.90;;;;;;5092117;28;19916;-76
2022/12/05 07:25:07;;;;;;;;;;;5.10;99.90;;;;;;5092470;28;20305;-77
2022/12/05 07:27:33;;;;;;;;;;;5.10;99.90;;;;;;5092222;28;19965;-77
2022/12/05 07:29:58;;;;;;;;;;;5.20;99.90;;;;;;5092258;28;19909;-76
2022/12/05 07:32:24;;;;;;;;;;;5.20;99.90;;;;;;5091413;28;19974;-76
2022/12/05 07:34:49;;;;;;;;;;;5.30;99.90;;;;;;5091988;28;19914;-77
2022/12/05 07:37:15;;;;;;;;;;;5.20;99.90;;;;;;5091548;28;19919;-77
2022/12/05 07:39:40;;;;;;;;;;;5.30;99.90;;;;;;5092052;28;19913;-77
2022/12/05 07:42:06;;;;;;;;;;;5.30;99.90;;;;;;5091414;28;19944;-77
2022/12/05 07:44:31;;;;;;;;;;;5.30;99.90;;;;;;5093200;28;19908;-76
2022/12/05 07:46:57;;;;;;;;;;;5.40;99.90;;;;;;5093221;28;19975;-76
2022/12/05 07:49:23;;;;;;;;;;;5.40;99.90;;;;;;5089696;28;19908;-75
2022/12/05 07:51:48;;;;;;;;;;;5.50;99.90;;;;;;5092727;28;19919;-76
2022/12/05 07:54:14;;;;;;;;;;;5.50;99.90;;;;;;5093454;28;20003;-76
2022/12/05 07:56:39;;;;;;;;;;;5.60;99.90;;;;;;5092853;28;19956;-76
2022/12/05 07:59:05;;;;;;;;;;;5.50;99.90;;;;;;5091638;28;20007;-76
2022/12/05 08:01:30;;;;;;;;;;;5.60;99.90;;;;;;5091868;28;20458;-76
2022/12/05 08:03:57;;;;;;;;;;;5.50;99.90;;;;;;5091293;28;19915;-77
2022/12/05 08:06:23;;;;;;;;;;;5.50;99.90;;;;;;5094895;28;19912;-76
2022/12/05 08:08:50;;;;;;;;;;;5.50;99.90;;;;;;5091336;28;19912;-78
2022/12/05 08:11:16;;;;;;;;;;;5.50;99.90;;;;;;5088738;28;19952;-76
2022/12/05 08:13:42;;;;;;;;;;;5.60;99.90;;;;;;5087480;28;19908;-75
2022/12/05 08:16:12;;;;;;;;;;;5.50;99.90;;;;;;5090020;28;19957;-76
2022/12/05 08:18:37;;;;;;;;;;;5.60;99.90;;;;;;5089721;28;19926;-77
2022/12/05 08:21:07;;;;;;;;;;;5.60;99.90;;;;;;5090415;28;19912;-76
2022/12/05 08:23:33;;;;;;;;;;;5.70;99.90;;;;;;5090086;28;20232;-76
2022/12/05 08:26:02;;;;;;;;;;;5.70;99.90;;;;;;5091005;28;19912;-77
2022/12/05 08:28:28;;;;;;;;;;;5.70;99.90;;;;;;5090142;28;19916;-77
2022/12/05 08:30:53;;;;;;;;;;;5.70;99.90;;;;;;5091239;28;20015;-77
2022/12/05 08:33:19;;;;;;;;;;;5.70;99.90;;;;;;5090309;28;19919;-77
2022/12/05 08:35:44;;;;;;;;;;;5.70;99.90;;;;;;5089054;28;19937;-77
2022/12/05 08:38:10;;;;;;;;;;;5.80;99.90;;;;;;5090174;28;19920;-76
2022/12/05 08:40:35;;;;;;;;;;;5.80;99.90;;;;;;5090873;28;20356;-77
2022/12/05 08:43:01;;;;;;;;;;;5.70;99.90;;;;;;5090094;28;19923;-77
2022/12/05 08:45:26;;;;;;;;;;;5.80;99.90;;;;;;5089970;28;19960;-76
2022/12/05 08:47:52;;;;;;;;;;;6.00;99.90;;;;;;5090144;28;20326;-76
2022/12/05 08:50:17;;;;;;;;;;;5.90;99.90;;;;;;5090372;28;20378;-76
2022/12/05 08:52:43;;;;;;;;;;;6.00;99.90;;;;;;5089623;28;19909;-77
2022/12/05 08:55:08;;;;;;;;;;;5.90;99.90;;;;;;5089100;28;19912;-77
2022/12/05 08:57:34;;;;;;;;;;;5.90;99.90;;;;;;5088393;28;19931;-77
2022/12/05 08:59:59;;;;;;;;;;;6.00;99.90;;;;;;5089914;28;19912;-77
2022/12/05 09:02:25;;;;;;;;;;;5.90;99.90;;;;;;5088815;28;19947;-77
2022/12/05 09:04:53;;;;;;;;;;;5.90;99.90;;;;;;5088938;28;19918;-78
2022/12/05 09:07:19;;;;;;;;;;;5.90;99.90;;;;;;5089052;28;19908;-76
2022/12/05 09:09:44;;;;;;;;;;;5.90;99.90;;;;;;5089256;28;20410;-77
2022/12/05 09:12:10;;;;;;;;;;;5.90;99.90;;;;;;5089088;28;19912;-77
2022/12/05 09:14:35;;;;;;;;;;;5.90;99.90;;;;;;5090110;28;19919;-76
2022/12/05 09:17:01;;;;;;;;;;;6.00;99.90;;;;;;5089518;28;19949;-77
2022/12/05 09:19:27;;;;;;;;;;;6.00;99.90;;;;;;5089250;28;20376;-77
2022/12/05 09:21:53;;;;;;;;;;;6.00;99.90;;;;;;5089752;28;19916;-77
2022/12/05 09:24:19;;;;;;;;;;;6.10;99.90;;;;;;5088991;28;19908;-76
2022/12/05 09:26:45;;;;;;;;;;;6.00;99.90;;;;;;5089607;28;19912;-77
2022/12/05 09:29:11;;;;;;;;;;;6.10;99.90;;;;;;5089763;28;20755;-77
2022/12/05 09:31:37;;;;;;;;;;;6.10;99.90;;;;;;5089410;28;19942;-77
2022/12/05 09:34:02;;;;;;;;;;;6.00;99.90;;;;;;5089458;28;20050;-77
2022/12/05 09:36:29;;;;;;;;;;;6.10;99.90;;;;;;5091169;28;19957;-77
2022/12/05 09:38:57;;;;;;;;;;;6.10;99.90;;;;;;5086707;28;19920;-77
2022/12/05 09:44:21;;;;;;;;;;;6.20;99.90;;;;;;5089167;28;19919;-78
2022/12/05 09:46:53;;;;;;;;;;;6.10;99.90;;;;;;5091378;28;19908;-77
2022/12/05 09:49:19;;;;;;;;;;;6.00;99.90;;;;;;5091879;28;20097;-77
2022/12/05 09:51:47;;;;;;;;;;;6.10;99.90;;;;;;5093610;28;20680;-77
2022/12/05 09:54:13;;;;;;;;;;;5.90;99.90;;;;;;5094651;28;19916;-77
2022/12/05 09:56:40;;;;;;;;;;;6.10;99.90;;;;;;5094451;28;19908;-77
2022/12/05 09:59:11;;;;;;;;;;;6.00;99.90;;;;;;5095185;28;20022;-78
2022/12/05 10:01:47;;;;;;;;;;;6.00;99.90;;;;;;5092373;28;19912;-78
2022/12/05 10:04:18;;;;;;;;;;;6.00;99.90;;;;;;5093536;28;20761;-77
2022/12/05 10:06:49;;;;;;;;;;;6.10;99.90;;;;;;5093855;28;20392;-77
2022/12/05 10:09:20;;;;;;;;;;;6.00;99.90;;;;;;5094553;28;19915;-77
2022/12/05 10:11:51;;;;;;;;;;;6.20;99.90;;;;;;5095178;28;19912;-77
2022/12/05 10:14:34;;;;;;;;;;;6.20;99.90;;;;;;5094120;28;19919;-77
2022/12/05 10:17:06;;;;;;;;;;;6.30;99.90;;;;;;5094128;28;19912;-77
2022/12/05 10:19:43;;;;;;;;;;;6.30;99.90;;;;;;5093968;28;19920;-76
2022/12/05 10:22:08;;;;;;;;;;;6.30;99.90;;;;;;5095603;28;19999;-77
2022/12/05 10:24:50;;;;;;;;;;;6.20;99.90;;;;;;5094338;28;20024;-77
2022/12/05 10:27:20;;;;;;;;;;;6.30;99.90;;;;;;5094425;28;19996;-76
2022/12/05 10:30:01;;;;;;;;;;;6.40;99.90;;;;;;5095590;28;19912;-76
2022/12/05 10:32:45;;;;;;;;;;;6.40;99.90;;;;;;5094733;28;19999;-77
2022/12/05 10:35:16;;;;;;;;;;;6.50;99.90;;;;;;5093019;28;20289;-78
2022/12/05 10:37:47;;;;;;;;;;;6.60;99.90;;;;;;5091482;28;19919;-78
2022/12/05 10:40:12;;;;;;;;;;;6.50;99.90;;;;;;5090971;28;20015;-77
2022/12/05 10:42:38;;;;;;;;;;;6.50;99.90;;;;;;5091986;28;20019;-77
2022/12/05 10:45:05;;;;;;;;;;;6.50;99.90;;;;;;5092341;28;20383;-76
2022/12/05 10:47:31;;;;;;;;;;;6.40;99.90;;;;;;5091310;28;19908;-78
2022/12/05 10:49:58;;;;;;;;;;;6.40;99.90;;;;;;5092096;28;19939;-77
2022/12/05 10:52:24;;;;;;;;;;;6.50;99.90;;;;;;5091992;28;19912;-77
2022/12/05 10:54:53;;;;;;;;;;;6.40;99.90;;;;;;5092820;28;20010;-77
2022/12/05 10:57:20;;;;;;;;;;;6.30;99.90;;;;;;5089903;28;19920;-78
2022/12/05 10:59:46;;;;;;;;;;;6.40;99.90;;;;;;5090171;28;19919;-77
2022/12/05 11:02:21;;;;;;;;;;;6.40;99.90;;;;;;5087737;28;20295;-77
2022/12/05 11:04:47;;;;;;;;;;;6.30;99.90;;;;;;5082299;28;19912;-77
2022/12/05 11:07:27;;;;;;;;;;;6.30;99.90;;;;;;5088592;28;19919;-77
2022/12/05 11:09:53;;;;;;;;;;;6.40;99.90;;;;;;5088639;28;20482;-78
2022/12/05 11:12:20;;;;;;;;;;;6.30;99.90;;;;;;5089557;28;19920;-77
2022/12/05 11:14:57;;;;;;;;;;;6.40;99.90;;;;;;5092435;28;19953;-77
2022/12/05 11:17:29;;;;;;;;;;;6.40;99.90;;;;;;5092448;28;19919;-77
2022/12/05 11:19:54;;;;;;;;;;;6.40;99.90;;;;;;5092131;28;19919;-77
2022/12/05 11:22:28;;;;;;;;;;;6.40;99.90;;;;;;5089741;28;19912;-77
2022/12/05 11:24:54;;;;;;;;;;;6.50;99.90;;;;;;5090172;28;20380;-76
2022/12/05 11:27:24;;;;;;;;;;;6.40;99.90;;;;;;5089797;28;19915;-77
2022/12/05 11:29:57;;;;;;;;;;;6.40;99.90;;;;;;5088694;28;19908;-77
2022/12/05 11:32:32;;;;;;;;;;;6.40;99.90;;;;;;5089761;28;19908;-77
2022/12/05 11:35:07;;;;;;;;;;;6.40;99.90;;;;;;5091627;28;20342;-77
2022/12/05 11:37:39;;;;;;;;;;;6.40;99.90;;;;;;5091431;28;19912;-77
2022/12/05 11:40:15;;;;;;;;;;;6.50;99.90;;;;;;5090192;28;20405;-76
2022/12/05 11:42:51;;;;;;;;;;;6.50;99.90;;;;;;5090552;28;19912;-77
2022/12/05 11:45:23;;;;;;;;;;;6.60;99.90;;;;;;5090964;28;19965;-77
2022/12/05 11:47:51;;;;;;;;;;;6.60;99.90;;;;;;5091241;28;20388;-77
2022/12/05 11:50:39;;;;;;;;;;;6.60;99.90;;;;;;5091830;28;19915;-77
2022/12/05 11:53:05;;;;;;;;;;;6.60;99.90;;;;;;5090389;28;20292;-77
2022/12/05 11:55:40;;;;;;;;;;;6.60;99.90;;;;;;5090746;28;19919;-77
2022/12/05 11:58:18;;;;;;;;;;;6.60;99.90;;;;;;5090360;28;19946;-77
2022/12/05 12:00:43;;;;;;;;;;;6.60;99.90;;;;;;5090425;28;19916;-77
2022/12/05 12:03:25;;;;;;;;;;;6.70;99.90;;;;;;5092113;28;19912;-76
2022/12/05 12:05:59;;;;;;;;;;;6.70;99.90;;;;;;5091553;28;19908;-77
2022/12/05 12:08:27;;;;;;;;;;;6.80;99.90;;;;;;5092096;28;20372;-77
2022/12/05 12:11:08;;;;;;;;;;;6.80;99.90;;;;;;5091394;28;19940;-77
2022/12/05 12:13:54;;;;;;;;;;;6.80;99.90;;;;;;5091245;28;19919;-77
2022/12/05 12:16:19;;;;;;;;;;;6.90;99.90;;;;;;5080074;28;19912;-77
2022/12/05 12:19:00;;;;;;;;;;;6.80;99.90;;;;;;5090926;28;19926;-77
2022/12/05 12:21:44;;;;;;;;;;;6.80;99.90;;;;;;5088611;28;20388;-77
2022/12/05 12:24:18;;;;;;;;;;;6.80;99.90;;;;;;5090366;28;19912;-77
2022/12/05 12:27:07;;;;;;;;;;;6.80;99.90;;;;;;5090281;28;19939;-78
2022/12/05 12:29:43;;;;;;;;;;;6.80;99.90;;;;;;5072468;28;19921;-77
2022/12/05 12:32:09;;;;;;;;;;;6.70;99.90;;;;;;5090613;28;19955;-77
2022/12/05 12:34:44;;;;;;;;;;;6.80;99.90;;;;;;5089915;28;19908;-77
2022/12/05 12:37:28;;;;;;;;;;;6.80;99.90;;;;;;5090382;28;20410;-76
2022/12/05 12:40:12;;;;;;;;;;;6.80;99.90;;;;;;5091508;28;20348;-77
2022/12/05 12:42:41;;;;;;;;;;;6.80;99.90;;;;;;5091984;28;19912;-76
2022/12/05 12:45:06;;;;;;;;;;;6.80;99.90;;;;;;5091688;28;19915;-77
2022/12/05 12:47:51;;;;;;;;;;;6.80;99.90;;;;;;5090761;28;19912;-77
2022/12/05 12:50:22;;;;;;;;;;;6.80;99.90;;;;;;5090872;28;19912;-78
2022/12/05 12:53:06;;;;;;;;;;;6.80;99.90;;;;;;5090733;28;19947;-77
2022/12/05 12:55:38;;;;;;;;;;;6.80;99.90;;;;;;5091096;28;19963;-77
2022/12/05 12:58:12;;;;;;;;;;;6.80;99.90;;;;;;5092199;28;20274;-77
2022/12/05 13:00:44;;;;;;;;;;;6.80;99.90;;;;;;5094461;28;20015;-76
2022/12/05 13:03:16;;;;;;;;;;;6.80;99.90;;;;;;5087504;28;20198;-76
2022/12/05 13:05:43;;;;;;;;;;;6.90;99.90;;;;;;5086842;28;19966;-76
2022/12/05 13:08:27;;;;;;;;;;;6.90;99.90;;;;;;5090058;28;19919;-77
2022/12/05 13:10:53;;;;;;;;;;;6.90;99.90;;;;;;5089733;28;19923;-77
2022/12/05 13:13:21;;;;;;;;;;;6.90;99.90;;;;;;5088079;28;20362;-76
2022/12/05 13:15:51;;;;;;;;;;;6.90;99.90;;;;;;5087510;28;19918;-76
2022/12/05 13:18:19;;;;;;;;;;;6.80;99.90;;;;;;5089147;28;19943;-77
2022/12/05 13:20:46;;;;;;;;;;;6.80;99.90;;;;;;5090235;28;19912;-76
2022/12/05 13:23:14;;;;;;;;;;;6.80;99.90;;;;;;5089066;28;20380;-76
2022/12/05 13:25:40;;;;;;;;;;;6.90;99.90;;;;;;5089972;28;20396;-76
2022/12/05 13:28:15;;;;;;;;;;;6.80;99.90;;;;;;5089396;28;19951;-77
2022/12/05 13:30:56;;;;;;;;;;;6.80;99.90;;;;;;5088611;28;19957;-76
2022/12/05 13:33:26;;;;;;;;;;;6.80;99.90;;;;;;5088963;28;20403;-77
2022/12/05 13:44:36;;;;;;;;;;;6.80;99.90;;;;;;5089266;28;20333;-76
2022/12/05 13:47:06;;;;;;;;;;;6.80;99.90;;;;;;5087675;28;19919;-77
2022/12/05 13:49:43;;;;;;;;;;;6.80;99.90;;;;;;5089379;28;19940;-77
2022/12/05 13:52:16;;;;;;;;;;;6.80;99.90;;;;;;5087673;28;19912;-76
2022/12/05 13:54:45;;;;;;;;;;;6.80;99.90;;;;;;5087340;28;19917;-76
2022/12/05 13:57:29;;;;;;;;;;;6.80;99.90;;;;;;5086986;28;20334;-76
2022/12/05 14:00:07;;;;;;;;;;;6.90;99.90;;;;;;5089579;28;20014;-77
2022/12/05 14:02:45;;;;;;;;;;;6.80;99.90;;;;;;5088590;28;20736;-76
2022/12/05 14:05:16;;;;;;;;;;;6.80;99.90;;;;;;5089422;28;19908;-76
2022/12/05 14:07:52;;;;;;;;;;;6.80;99.90;;;;;;5089888;28;19909;-76
2022/12/05 14:10:26;;;;;;;;;;;6.90;99.90;;;;;;5088559;28;19935;-77
2022/12/05 14:12:55;;;;;;;;;;;6.90;99.90;;;;;;5089729;28;19916;-77
2022/12/05 14:15:23;;;;;;;;;;;6.90;99.90;;;;;;5089223;28;20002;-77
2022/12/05 14:17:54;;;;;;;;;;;6.80;99.90;;;;;;5087261;28;19922;-76
2022/12/05 14:20:24;;;;;;;;;;;6.80;99.90;;;;;;5088717;28;20415;-77
2022/12/05 14:22:55;;;;;;;;;;;6.90;99.90;;;;;;5089926;28;19961;-76
2022/12/05 14:25:35;;;;;;;;;;;6.80;99.90;;;;;;5087680;28;20381;-76
2022/12/05 14:28:11;;;;;;;;;;;6.70;99.90;;;;;;5089541;28;19916;-76
2022/12/05 14:30:42;;;;;;;;;;;6.70;99.90;;;;;;5089567;28;20345;-77
2022/12/05 14:33:16;;;;;;;;;;;6.80;99.90;;;;;;5089270;28;19912;-75
2022/12/05 14:35:46;;;;;;;;;;;6.70;99.90;;;;;;5092191;28;19912;-76
2022/12/05 14:38:28;;;;;;;;;;;6.70;99.90;;;;;;5092615;28;19912;-76
2022/12/05 14:40:55;;;;;;;;;;;6.80;99.90;;;;;;5092523;28;19923;-77
2022/12/05 14:43:26;;;;;;;;;;;6.80;99.90;;;;;;5093067;28;20608;-76
2022/12/05 14:45:52;;;;;;;;;;;6.70;99.90;;;;;;5094476;28;19916;-77
2022/12/05 14:48:39;;;;;;;;;;;6.70;99.90;;;;;;5094847;28;19934;-76
2022/12/05 14:51:37;;;;;;;;;;;6.70;99.90;;;;;;5094017;28;20000;-77
2022/12/05 14:54:12;;;;;;;;;;;6.60;99.90;;;;;;5070629;28;19919;-76
2022/12/05 14:56:40;;;;;;;;;;;6.70;99.90;;;;;;5093510;28;19979;-77
2022/12/05 14:59:21;;;;;;;;;;;6.70;99.90;;;;;;5092204;28;19932;-77
2022/12/05 15:01:49;;;;;;;;;;;6.70;99.90;;;;;;5092773;28;19952;-77
2022/12/05 15:04:24;;;;;;;;;;;6.70;99.90;;;;;;5095183;28;19912;-76